createdAt,value
2023-05-04T00:01:28.350Z,37.11
2023-05-04T00:03:55.021Z,37.39
2023-05-04T00:06:21.964Z,37.05
2023-05-04T00:08:48.479Z,37.14
2023-05-04T00:11:15.073Z,37.38
2023-05-04T00:13:41.638Z,37.09
2023-05-04T00:16:10.667Z,37.42
2023-05-04T00:18:37.806Z,37.27
2023-05-04T00:21:04.275Z,37.01
2023-05-04T00:23:30.971Z,36.85
2023-05-04T00:26:00.661Z,37.12
2023-05-04T00:28:27.346Z,37.45
2023-05-04T00:30:55.024Z,37.28
2023-05-04T00:33:22.317Z,37.13
2023-05-04T00:35:48.959Z,37.13
2023-05-04T00:38:16.776Z,37.23
2023-05-04T00:40:43.295Z,37.30
2023-05-04T00:43:10.996Z,37.23
2023-05-04T00:45:38.099Z,37.38
2023-05-04T00:48:05.520Z,37.49
2023-05-04T00:50:32.196Z,37.20
2023-05-04T00:53:02.006Z,37.29
2023-05-04T00:55:29.402Z,37.32
2023-05-04T00:57:56.338Z,37.01
2023-05-04T01:00:23.074Z,37.07
2023-05-04T01:02:50.072Z,37.14
2023-05-04T01:05:16.859Z,37.30
2023-05-04T01:07:50.618Z,37.23
2023-05-04T01:10:26.268Z,37.11
2023-05-04T01:13:13.928Z,37.06
2023-05-04T01:15:42.835Z,37.05
2023-05-04T01:18:09.479Z,37.21
2023-05-04T01:20:36.281Z,37.07
2023-05-04T01:23:03.559Z,37.08
2023-05-04T01:25:39.888Z,36.99
2023-05-04T01:28:10.060Z,37.14
2023-05-04T01:30:43.419Z,37.45
2023-05-04T01:33:11.056Z,37.36
2023-05-04T01:35:37.841Z,37.17
2023-05-04T01:38:04.964Z,37.26
2023-05-04T01:40:31.441Z,37.13
2023-05-04T01:42:57.981Z,37.10
2023-05-04T01:45:24.500Z,37.08
2023-05-04T01:47:51.122Z,37.44
2023-05-04T01:50:18.654Z,37.34
2023-05-04T01:52:45.814Z,37.42
2023-05-04T01:55:12.391Z,36.88
2023-05-04T01:57:39.047Z,37.25
2023-05-04T02:00:06.417Z,37.38
2023-05-04T02:02:45.368Z,37.35
2023-05-04T02:05:16.716Z,37.22
2023-05-04T02:07:43.279Z,37.40
2023-05-04T02:10:10.125Z,37.19
2023-05-04T02:12:36.647Z,37.10
2023-05-04T02:15:03.554Z,37.28
2023-05-04T02:17:30.785Z,37.07
2023-05-04T02:19:57.250Z,37.17
2023-05-04T02:22:23.834Z,36.96
2023-05-04T02:24:52.647Z,37.11
2023-05-04T02:27:19.131Z,37.06
2023-05-04T02:29:45.736Z,37.27
2023-05-04T02:32:12.219Z,37.02
2023-05-04T02:34:38.713Z,37.30
2023-05-04T02:37:07.330Z,36.82
2023-05-04T02:39:34.793Z,37.16
2023-05-04T02:42:01.678Z,37.51
2023-05-04T02:44:28.148Z,37.51
2023-05-04T02:46:54.606Z,37.10
2023-05-04T02:49:21.571Z,37.39
2023-05-04T02:51:48.179Z,37.18
2023-05-04T02:54:14.618Z,37.59
2023-05-04T02:56:41.344Z,37.54
2023-05-04T02:59:07.901Z,37.18
2023-05-04T03:01:35.023Z,37.06
2023-05-04T03:04:01.848Z,37.35
2023-05-04T03:06:29.081Z,37.17
2023-05-04T03:08:55.880Z,37.18
2023-05-04T03:11:22.399Z,37.16
2023-05-04T03:13:48.964Z,36.86
2023-05-04T03:16:15.476Z,37.10
2023-05-04T03:21:26.647Z,37.07
2023-05-04T03:23:53.195Z,37.41
2023-05-04T03:26:19.722Z,36.99
2023-05-04T03:28:46.222Z,37.24
2023-05-04T03:31:13.296Z,37.20
2023-05-04T03:33:40.033Z,37.17
2023-05-04T03:36:06.719Z,37.33
2023-05-04T03:38:33.290Z,37.27
2023-05-04T03:40:59.778Z,37.08
2023-05-04T03:43:26.718Z,37.02
2023-05-04T03:45:54.840Z,37.18
2023-05-04T03:48:21.398Z,37.39
2023-05-04T03:50:48.155Z,37.14
2023-05-04T03:53:15.069Z,37.14
2023-05-04T03:55:41.870Z,37.13
2023-05-04T03:58:08.410Z,37.18
2023-05-04T04:00:35.182Z,37.29
2023-05-04T04:03:09.661Z,37.00
2023-05-04T04:05:37.626Z,36.83
2023-05-04T04:08:04.783Z,37.21
2023-05-04T04:10:31.484Z,37.09
2023-05-04T04:12:58.082Z,37.25
2023-05-04T04:15:24.602Z,37.74
2023-05-04T04:17:51.198Z,37.22
2023-05-04T04:20:17.970Z,37.27
2023-05-04T04:22:44.455Z,37.14
2023-05-04T04:25:11.006Z,37.16
2023-05-04T04:27:37.823Z,37.23
2023-05-04T04:30:05.536Z,37.09
2023-05-04T04:32:34.041Z,37.01
2023-05-04T04:35:01.042Z,37.21
2023-05-04T04:37:28.176Z,37.11
2023-05-04T04:39:54.635Z,37.27
2023-05-04T04:42:21.240Z,37.46
2023-05-04T04:44:47.689Z,36.98
2023-05-04T04:47:16.544Z,36.98
2023-05-04T04:49:43.512Z,37.22
2023-05-04T04:52:11.374Z,37.30
2023-05-04T04:54:38.782Z,37.02
2023-05-04T04:57:06.081Z,37.18
2023-05-04T04:59:32.732Z,36.97
2023-05-04T05:01:59.325Z,37.00
2023-05-04T05:04:25.917Z,37.20
2023-05-04T05:06:54.100Z,37.67
2023-05-04T05:09:20.628Z,37.11
2023-05-04T05:11:47.165Z,37.05
2023-05-04T05:14:13.675Z,37.12
2023-05-04T05:16:40.289Z,37.31
2023-05-04T05:19:06.903Z,36.99
2023-05-04T05:21:33.356Z,36.91
2023-05-04T05:23:59.900Z,37.11
2023-05-04T05:26:26.485Z,37.21
2023-05-04T05:28:52.989Z,37.48
2023-05-04T05:31:19.443Z,37.04
2023-05-04T05:33:46.287Z,37.06
2023-05-04T05:36:14.462Z,36.95
2023-05-04T05:38:40.936Z,37.15
2023-05-04T05:41:07.420Z,37.00
2023-05-04T05:43:33.900Z,36.72
2023-05-04T05:46:00.665Z,37.29
2023-05-04T05:48:27.168Z,37.35
2023-05-04T05:50:53.661Z,37.30
2023-05-04T05:53:20.136Z,37.33
2023-05-04T05:55:47.253Z,37.29
2023-05-04T05:58:13.933Z,37.40
2023-05-04T06:00:40.373Z,37.05
2023-05-04T06:03:07.738Z,37.28
2023-05-04T06:05:34.659Z,37.04
2023-05-04T06:08:01.218Z,37.08
2023-05-04T06:10:27.944Z,36.89
2023-05-04T06:12:54.447Z,36.99
2023-05-04T06:15:21.136Z,37.19
2023-05-04T06:17:48.954Z,37.30
2023-05-04T06:20:16.092Z,36.80
2023-05-04T06:22:42.546Z,37.20
2023-05-04T06:25:09.287Z,36.94
2023-05-04T06:27:35.867Z,37.04
2023-05-04T06:30:02.461Z,37.02
2023-05-04T06:32:29.095Z,37.14
2023-05-04T06:34:55.749Z,37.24
2023-05-04T06:37:22.422Z,37.13
2023-05-04T06:39:48.935Z,37.18
2023-05-04T06:42:15.640Z,36.80
2023-05-04T06:44:42.392Z,37.04
2023-05-04T06:47:08.882Z,37.02
2023-05-04T06:49:35.443Z,37.04
2023-05-04T06:52:01.951Z,36.80
2023-05-04T06:54:29.784Z,37.04
2023-05-04T06:56:56.623Z,37.05
2023-05-04T06:59:23.178Z,37.00
2023-05-04T07:01:49.862Z,37.05
2023-05-04T07:04:16.503Z,36.88
2023-05-04T07:06:45.786Z,37.07
2023-05-04T07:09:12.282Z,37.28
2023-05-04T07:11:38.811Z,36.95
2023-05-04T07:14:05.662Z,36.81
2023-05-04T07:16:33.104Z,36.96
2023-05-04T07:18:59.739Z,36.95
2023-05-04T07:21:28.847Z,37.06
2023-05-04T07:23:56.235Z,37.12
2023-05-04T07:26:23.235Z,37.10
2023-05-04T07:28:50.000Z,37.25
2023-05-04T07:31:16.562Z,37.19
2023-05-04T07:33:43.506Z,36.95
2023-05-04T07:36:10.027Z,36.92
2023-05-04T07:38:36.709Z,36.83
2023-05-04T07:41:03.241Z,37.04
2023-05-04T07:43:29.723Z,37.18
2023-05-04T07:45:56.576Z,36.81
2023-05-04T07:48:25.205Z,36.75
2023-05-04T07:50:53.692Z,37.17
2023-05-04T07:53:25.366Z,36.94
2023-05-04T07:55:54.199Z,36.82
2023-05-04T07:58:20.758Z,37.18
2023-05-04T08:00:47.315Z,36.95
2023-05-04T08:03:13.833Z,37.11
2023-05-04T08:05:40.380Z,37.07
2023-05-04T08:08:08.692Z,36.97
2023-05-04T08:10:38.785Z,37.04
2023-05-04T08:13:05.874Z,36.87
2023-05-04T08:15:32.443Z,37.00
2023-05-04T08:17:59.216Z,36.81
2023-05-04T08:20:25.780Z,36.85
2023-05-04T08:22:52.312Z,37.18
2023-05-04T08:25:18.836Z,36.99
2023-05-04T08:27:45.704Z,37.10
2023-05-04T08:30:12.750Z,36.74
2023-05-04T08:32:39.500Z,36.98
2023-05-04T08:35:06.633Z,36.99
2023-05-04T08:37:33.275Z,37.16
2023-05-04T08:39:59.835Z,36.99
2023-05-04T08:42:28.457Z,37.06
2023-05-04T08:44:56.147Z,37.09
2023-05-04T08:47:22.984Z,37.14
2023-05-04T08:49:49.719Z,36.86
2023-05-04T08:52:17.536Z,37.25
2023-05-04T08:54:44.882Z,37.07
2023-05-04T08:57:12.727Z,36.91
2023-05-04T08:59:39.686Z,37.08
2023-05-04T09:02:07.310Z,36.78
2023-05-04T09:04:34.250Z,37.09
2023-05-04T09:07:00.721Z,36.71
2023-05-04T09:09:28.567Z,36.74
2023-05-04T09:11:55.108Z,37.05
2023-05-04T09:14:22.486Z,36.79
2023-05-04T09:16:49.094Z,36.98
2023-05-04T09:19:20.241Z,37.10
2023-05-04T09:21:48.065Z,37.01
2023-05-04T09:24:25.596Z,36.80
2023-05-04T09:26:52.109Z,37.15
2023-05-04T09:29:18.715Z,37.10
2023-05-04T09:31:52.504Z,36.87
2023-05-04T09:34:22.892Z,37.04
2023-05-04T09:37:01.523Z,37.01
2023-05-04T09:39:28.911Z,37.03
2023-05-04T09:41:55.481Z,36.77
2023-05-04T09:44:24.364Z,37.14
2023-05-04T09:46:55.434Z,36.90
2023-05-04T09:49:34.901Z,37.03
2023-05-04T09:52:03.706Z,36.82
2023-05-04T09:54:39.035Z,36.95
2023-05-04T09:57:15.679Z,37.07
2023-05-04T09:59:42.731Z,37.04
2023-05-04T10:02:22.096Z,36.87
2023-05-04T10:04:57.151Z,36.89
2023-05-04T10:07:24.869Z,36.96
2023-05-04T10:09:52.921Z,36.91
2023-05-04T10:12:19.570Z,36.93
2023-05-04T10:14:47.137Z,36.85
2023-05-04T10:17:33.265Z,36.99
2023-05-04T10:20:16.637Z,37.05
2023-05-04T10:22:49.084Z,36.76
2023-05-04T10:25:24.992Z,36.84
2023-05-04T10:28:07.584Z,36.81
2023-05-04T10:30:34.104Z,36.77
2023-05-04T10:33:02.405Z,36.90
2023-05-04T10:35:29.058Z,37.05
2023-05-04T10:37:56.599Z,37.05
2023-05-04T10:40:36.665Z,37.01
2023-05-04T10:43:03.836Z,36.90
2023-05-04T10:45:41.066Z,36.74
2023-05-04T10:48:08.979Z,37.18
2023-05-04T10:50:43.734Z,37.08
2023-05-04T10:53:12.080Z,36.75
2023-05-04T10:55:40.715Z,36.87
2023-05-04T10:58:07.547Z,36.94
2023-05-04T11:00:41.912Z,36.75
2023-05-04T11:03:09.050Z,36.86
2023-05-04T11:05:43.996Z,36.85
2023-05-04T11:08:24.626Z,36.97
2023-05-04T11:11:06.872Z,36.75
2023-05-04T11:13:34.946Z,36.96
2023-05-04T11:16:02.241Z,36.71
2023-05-04T11:18:31.101Z,36.61
2023-05-04T11:20:58.599Z,36.80
2023-05-04T11:23:25.443Z,36.89
2023-05-04T11:25:52.674Z,36.73
2023-05-04T11:28:19.189Z,36.78
2023-05-04T11:30:47.651Z,36.62
2023-05-04T11:33:19.255Z,37.09
2023-05-04T11:35:46.229Z,36.80
2023-05-04T11:38:19.915Z,36.86
2023-05-04T11:40:47.866Z,36.73
2023-05-04T11:43:14.819Z,36.60
2023-05-04T11:45:42.556Z,36.60
2023-05-04T11:48:09.393Z,36.97
2023-05-04T11:50:36.307Z,36.69
2023-05-04T11:53:09.086Z,36.71
2023-05-04T11:55:37.425Z,36.93
2023-05-04T11:58:11.555Z,36.71
2023-05-04T12:00:40.267Z,36.83
2023-05-04T12:03:39.812Z,36.75
2023-05-04T12:06:14.283Z,36.73
2023-05-04T12:08:43.717Z,36.90
2023-05-04T12:11:16.377Z,36.74
2023-05-04T12:13:44.894Z,37.02
2023-05-04T12:16:15.966Z,36.61
2023-05-04T12:18:44.286Z,36.85
2023-05-04T12:21:21.464Z,36.97
2023-05-04T12:23:48.314Z,36.75
2023-05-04T12:26:18.035Z,36.89
2023-05-04T12:28:46.034Z,37.10
2023-05-04T12:31:12.737Z,36.85
2023-05-04T12:33:39.215Z,36.90
2023-05-04T12:36:06.279Z,37.06
2023-05-04T12:38:33.851Z,36.58
2023-05-04T12:41:04.138Z,36.56
2023-05-04T12:43:31.249Z,36.74
2023-05-04T12:45:57.791Z,36.91
2023-05-04T12:48:26.387Z,36.42
2023-05-04T12:50:52.863Z,36.59
2023-05-04T12:53:21.736Z,36.64
2023-05-04T12:55:48.872Z,36.88
2023-05-04T12:58:15.349Z,36.37
2023-05-04T13:00:45.670Z,36.72
2023-05-04T13:03:13.015Z,36.72
2023-05-04T13:05:40.175Z,36.78
2023-05-04T13:08:06.665Z,36.66
2023-05-04T13:10:33.174Z,36.69
2023-05-04T13:12:59.721Z,36.74
2023-05-04T13:15:26.257Z,36.78
2023-05-04T13:17:53.803Z,36.71
2023-05-04T13:20:20.295Z,36.25
2023-05-04T13:22:47.899Z,36.66
2023-05-04T13:25:14.526Z,36.64
2023-05-04T13:27:41.074Z,36.61
2023-05-04T13:30:08.362Z,36.73
2023-05-04T13:32:36.284Z,36.65
2023-05-04T13:35:04.401Z,36.94
2023-05-04T13:37:30.937Z,36.36
2023-05-04T13:39:59.377Z,36.70
2023-05-04T13:42:25.916Z,36.89
2023-05-04T13:44:52.414Z,36.44
2023-05-04T13:47:19.176Z,36.46
2023-05-04T13:49:45.764Z,36.45
2023-05-04T13:52:12.222Z,36.71
2023-05-04T13:54:38.842Z,36.77
2023-05-04T13:57:05.314Z,36.32
2023-05-04T13:59:31.819Z,36.55
2023-05-04T14:01:58.444Z,36.50
2023-05-04T14:04:25.071Z,36.43
2023-05-04T14:06:51.944Z,36.57
2023-05-04T14:09:19.162Z,36.53
2023-05-04T14:11:46.638Z,36.80
2023-05-04T14:14:13.432Z,36.35
2023-05-04T14:16:40.089Z,36.46
2023-05-04T14:19:06.763Z,36.37
2023-05-04T14:21:33.343Z,36.38
2023-05-04T14:23:59.871Z,36.61
2023-05-04T14:26:26.489Z,36.53
2023-05-04T14:28:52.977Z,36.39
2023-05-04T14:31:19.493Z,36.39
2023-05-04T14:33:46.096Z,36.76
2023-05-04T14:36:12.643Z,36.50
2023-05-04T14:38:39.311Z,36.69
2023-05-04T14:41:07.325Z,36.53
2023-05-04T14:43:34.237Z,36.32
2023-05-04T14:46:01.691Z,36.54
2023-05-04T14:48:28.672Z,36.33
2023-05-04T14:50:55.568Z,36.42
2023-05-04T14:53:23.202Z,36.60
2023-05-04T14:55:50.459Z,36.38
2023-05-04T14:58:17.634Z,36.51
2023-05-04T15:00:45.174Z,36.58
2023-05-04T15:03:12.103Z,36.29
2023-05-04T15:05:38.659Z,36.29
2023-05-04T15:08:05.457Z,36.30
2023-05-04T15:10:32.039Z,36.39
2023-05-04T15:12:59.885Z,36.13
2023-05-04T15:15:26.731Z,36.64
2023-05-04T15:17:53.353Z,36.12
2023-05-04T15:20:19.998Z,36.49
2023-05-04T15:22:47.361Z,36.24
2023-05-04T15:25:13.820Z,36.36
2023-05-04T15:27:40.843Z,36.40
2023-05-04T15:30:09.004Z,36.34
2023-05-04T15:32:35.780Z,36.59
2023-05-04T15:35:05.808Z,36.43
2023-05-04T15:37:32.820Z,36.25
2023-05-04T15:40:01.910Z,36.22
2023-05-04T15:42:29.106Z,36.21
2023-05-04T15:44:55.622Z,36.28
2023-05-04T15:47:22.192Z,36.21
2023-05-04T15:49:48.798Z,36.45
2023-05-04T15:52:15.383Z,36.21
2023-05-04T15:54:42.038Z,36.38
2023-05-04T15:57:08.544Z,36.20
2023-05-04T15:59:35.002Z,35.99
2023-05-04T16:02:01.825Z,36.37
2023-05-04T16:04:28.275Z,36.44
2023-05-04T16:06:54.812Z,35.98
2023-05-04T16:09:21.428Z,36.09
2023-05-04T16:11:47.892Z,36.23
2023-05-04T16:14:15.411Z,36.16
2023-05-04T16:16:42.431Z,36.13
2023-05-04T16:19:11.403Z,36.26
2023-05-04T16:21:38.223Z,36.18
2023-05-04T16:24:07.304Z,36.11
2023-05-04T16:26:33.849Z,36.32
2023-05-04T16:29:04.070Z,36.13
2023-05-04T16:31:31.006Z,36.26
2023-05-04T16:33:57.834Z,36.30
2023-05-04T16:36:24.419Z,36.45
2023-05-04T16:38:50.968Z,36.40
2023-05-04T16:41:18.636Z,36.28
2023-05-04T16:43:45.304Z,36.33
2023-05-04T16:46:12.253Z,36.23
2023-05-04T16:48:40.045Z,36.22
2023-05-04T16:51:08.098Z,36.36
2023-05-04T16:53:35.605Z,36.18
2023-05-04T16:56:02.275Z,36.25
2023-05-04T16:58:28.860Z,36.14
2023-05-04T17:00:55.673Z,36.14
2023-05-04T17:03:22.760Z,36.24
2023-05-04T17:05:49.374Z,35.76
2023-05-04T17:08:17.564Z,36.09
2023-05-04T17:10:46.824Z,35.98
2023-05-04T17:13:13.465Z,36.26
2023-05-04T17:15:39.963Z,36.16
2023-05-04T17:18:06.630Z,35.99
2023-05-04T17:20:33.201Z,35.88
2023-05-04T17:22:59.927Z,35.74
2023-05-04T17:25:27.322Z,35.63
2023-05-04T17:27:54.791Z,35.66
2023-05-04T17:30:21.554Z,35.45
2023-05-04T17:32:48.799Z,35.18
2023-05-04T17:35:23.984Z,34.88
2023-05-04T17:37:55.988Z,35.23
2023-05-04T17:40:24.489Z,34.70
2023-05-04T17:42:50.956Z,35.07
2023-05-04T17:45:17.556Z,35.10
2023-05-04T17:47:46.229Z,35.31
2023-05-04T17:50:13.029Z,35.09
2023-05-04T17:52:39.568Z,35.22
2023-05-04T17:55:06.321Z,35.13
2023-05-04T17:57:32.843Z,34.85
2023-05-04T17:59:59.801Z,35.18
2023-05-04T18:02:26.445Z,35.04
2023-05-04T18:04:52.948Z,35.10
2023-05-04T18:07:19.413Z,35.23
2023-05-04T18:09:46.144Z,35.42
2023-05-04T18:12:12.773Z,35.24
2023-05-04T18:14:39.229Z,35.37
2023-05-04T18:17:06.100Z,35.06
2023-05-04T18:19:34.360Z,35.29
2023-05-04T18:22:01.059Z,35.27
2023-05-04T18:24:27.616Z,35.27
2023-05-04T18:26:54.494Z,35.22
2023-05-04T18:29:21.133Z,35.46
2023-05-04T18:31:47.796Z,35.35
2023-05-04T18:34:14.373Z,35.47
2023-05-04T18:36:40.995Z,35.37
2023-05-04T18:39:08.288Z,35.36
2023-05-04T18:41:34.926Z,35.49
2023-05-04T18:44:14.545Z,35.40
2023-05-04T18:46:41.025Z,35.29
2023-05-04T18:49:07.589Z,35.55
2023-05-04T18:51:34.193Z,35.64
2023-05-04T18:54:01.103Z,35.77
2023-05-04T18:56:27.643Z,35.61
2023-05-04T18:58:54.202Z,35.61
2023-05-04T19:01:21.964Z,35.49
2023-05-04T19:03:48.663Z,35.72
2023-05-04T19:06:15.213Z,35.66
2023-05-04T19:08:41.846Z,35.64
2023-05-04T19:11:08.499Z,35.53
2023-05-04T19:13:35.035Z,35.70
2023-05-04T19:16:01.551Z,35.59
2023-05-04T19:18:28.240Z,35.87
2023-05-04T19:20:54.766Z,35.61
2023-05-04T19:23:21.378Z,35.58
2023-05-04T19:25:48.102Z,35.85
2023-05-04T19:28:14.578Z,35.79
2023-05-04T19:30:41.670Z,35.87
2023-05-04T19:33:08.576Z,35.86
2023-05-04T19:35:35.944Z,35.90
2023-05-04T19:38:02.708Z,35.90
2023-05-04T19:40:29.196Z,36.02
2023-05-04T19:42:55.792Z,35.95
2023-05-04T19:45:22.378Z,36.04
2023-05-04T19:47:50.375Z,35.85
2023-05-04T19:50:17.028Z,35.78
2023-05-04T19:52:43.714Z,35.61
2023-05-04T19:55:10.861Z,35.91
2023-05-04T19:57:37.301Z,36.08
2023-05-04T20:00:04.665Z,36.13
2023-05-04T20:02:38.422Z,36.09
2023-05-04T20:05:08.210Z,36.16
2023-05-04T20:07:34.895Z,36.00
2023-05-04T20:10:01.631Z,36.02
2023-05-04T20:12:28.243Z,36.12
2023-05-04T20:14:54.756Z,35.83
2023-05-04T20:17:21.364Z,36.10
2023-05-04T20:19:48.285Z,36.20
2023-05-04T20:22:15.315Z,36.11
2023-05-04T20:24:42.320Z,36.26
2023-05-04T20:27:08.849Z,36.10
2023-05-04T20:29:35.392Z,36.22
2023-05-04T20:32:02.943Z,36.15
2023-05-04T20:34:29.557Z,36.10
2023-05-04T20:36:56.380Z,35.95
2023-05-04T20:39:23.129Z,36.38
2023-05-04T20:41:50.356Z,36.22
2023-05-04T20:44:17.138Z,36.31
2023-05-04T20:46:45.185Z,36.15
2023-05-04T20:49:12.261Z,36.11
2023-05-04T20:51:38.802Z,36.18
2023-05-04T20:54:05.385Z,36.26
2023-05-04T20:56:31.901Z,36.05
2023-05-04T20:58:58.527Z,36.45
2023-05-04T21:01:25.126Z,36.42
2023-05-04T21:03:52.441Z,36.46
2023-05-04T21:06:18.991Z,36.16
2023-05-04T21:08:45.460Z,36.25
2023-05-04T21:11:11.924Z,36.24
2023-05-04T21:13:38.461Z,36.46
2023-05-04T21:16:05.362Z,36.47
2023-05-04T21:18:31.867Z,36.59
2023-05-04T21:20:58.331Z,36.63
2023-05-04T21:23:25.107Z,36.39
2023-05-04T21:25:59.902Z,36.23
2023-05-04T21:28:26.387Z,36.64
2023-05-04T21:30:52.914Z,36.28
2023-05-04T21:33:19.458Z,36.43
2023-05-04T21:35:45.985Z,36.36
2023-05-04T21:38:12.966Z,36.22
2023-05-04T21:40:39.639Z,36.46
2023-05-04T21:43:06.134Z,36.25
2023-05-04T21:45:32.938Z,36.52
2023-05-04T21:48:02.353Z,36.65
2023-05-04T21:50:29.047Z,36.30
2023-05-04T21:52:55.672Z,36.48
2023-05-04T21:55:22.264Z,36.65
2023-05-04T21:57:48.761Z,36.31
2023-05-04T22:00:18.198Z,36.47
2023-05-04T22:02:45.094Z,36.48
2023-05-04T22:05:12.166Z,36.55
2023-05-04T22:07:38.708Z,36.30
2023-05-04T22:10:05.992Z,36.40
2023-05-04T22:12:32.884Z,36.25
2023-05-04T22:14:59.475Z,36.70
2023-05-04T22:17:26.122Z,36.01
2023-05-04T22:19:53.077Z,36.38
2023-05-04T22:22:19.620Z,36.42
2023-05-04T22:24:46.329Z,36.41
2023-05-04T22:27:12.915Z,36.40
2023-05-04T22:29:39.592Z,36.39
2023-05-04T22:32:06.285Z,36.43
2023-05-04T22:34:32.786Z,36.55
2023-05-04T22:36:59.274Z,36.71
2023-05-04T22:39:25.797Z,36.46
2023-05-04T22:41:52.391Z,36.75
2023-05-04T22:44:19.050Z,36.43
2023-05-04T22:46:45.871Z,36.55
2023-05-04T22:49:12.615Z,35.99
2023-05-04T22:51:39.522Z,36.38
2023-05-04T22:54:06.277Z,36.28
2023-05-04T22:56:33.068Z,36.52
2023-05-04T22:58:59.674Z,36.49
2023-05-04T23:01:27.473Z,36.55
2023-05-04T23:03:54.135Z,36.49
2023-05-04T23:06:20.763Z,36.62
2023-05-04T23:08:47.319Z,36.35
2023-05-04T23:11:13.789Z,36.25
2023-05-04T23:13:40.423Z,36.52
2023-05-04T23:16:07.513Z,36.73
2023-05-04T23:18:34.082Z,36.42
2023-05-04T23:21:00.782Z,36.85
2023-05-04T23:23:27.457Z,36.72
2023-05-04T23:25:54.108Z,36.48
2023-05-04T23:28:20.593Z,36.35
2023-05-04T23:30:47.188Z,36.50
2023-05-04T23:33:13.638Z,36.64
2023-05-04T23:35:40.180Z,36.46
2023-05-04T23:38:06.648Z,36.65
2023-05-04T23:40:33.176Z,37.04
2023-05-04T23:42:59.806Z,36.35
2023-05-04T23:45:26.446Z,36.34
2023-05-04T23:47:53.235Z,36.43
2023-05-04T23:50:19.724Z,36.65
2023-05-04T23:52:46.164Z,36.54
2023-05-04T23:55:12.972Z,36.52
2023-05-04T23:57:39.744Z,36.78
